Time;durP1;ratioP1;P1;durP2;ratioP2;P2;SDS_P1;SDS_P2;PMS_P1;PMS_P2;Temp;Humidity;BMP_temperature;BMP_pressure;BME280_temperature;BME280_humidity;BME280_pressure;Samples;Min_cycle;Max_cycle;Signal;HPM_P1;HPM_P2
2021/01/05 05:45:26;;;;;;;10.25;5.93;;;;;;;;;;6253142;22;884611;-82
2021/01/05 05:47:58;;;;;;;11.13;6.03;;;;;;;;;;6223061;23;20012;-82
2021/01/05 05:50:28;;;;;;;8.18;5.18;;;;;;;;;;6223470;23;20008;-84
2021/01/05 05:52:58;;;;;;;9.45;6.18;;;;;;;;;;6240873;23;20004;-84
2021/01/05 05:55:24;;;;;;;9.97;5.40;;;;;;;;;;6241978;23;20024;-86
2021/01/05 05:57:51;;;;;;;10.93;6.47;;;;;;;;;;6213475;23;20004;-85
2021/01/05 06:00:38;;;;;;;10.18;5.78;;;;;;;;;;6192179;23;20088;-84
2021/01/05 06:03:04;;;;;;;9.15;5.68;;;;;;;;;;6191268;23;20087;-84
2021/01/05 06:05:37;;;;;;;8.63;5.63;;;;;;;;;;6191808;23;20008;-84
2021/01/05 06:08:05;;;;;;;12.25;6.80;;;;;;;;;;6190990;23;20054;-85
2021/01/05 06:10:36;;;;;;;12.30;6.22;;;;;;;;;;6197495;23;20001;-84
2021/01/05 06:13:03;;;;;;;10.90;5.97;;;;;;;;;;6190542;23;20335;-84
2021/01/05 06:15:33;;;;;;;12.07;6.78;;;;;;;;;;6191720;23;20032;-84
2021/01/05 06:17:59;;;;;;;10.05;5.90;;;;;;;;;;6192193;23;19997;-84
2021/01/05 06:20:25;;;;;;;10.02;5.57;;;;;;;;;;6190194;23;20096;-84
2021/01/05 06:22:51;;;;;;;9.35;5.32;;;;;;;;;;6192165;23;20033;-84
2021/01/05 06:25:17;;;;;;;9.23;5.90;;;;;;;;;;6191664;23;20371;-84
2021/01/05 06:27:43;;;;;;;10.73;5.85;;;;;;;;;;6185926;23;20009;-84
2021/01/05 06:30:09;;;;;;;11.98;6.63;;;;;;;;;;6183678;23;20059;-84
2021/01/05 06:32:35;;;;;;;9.23;5.55;;;;;;;;;;6183417;23;20046;-84
2021/01/05 06:35:01;;;;;;;10.20;5.85;;;;;;;;;;6182593;23;20005;-85
2021/01/05 06:37:27;;;;;;;11.10;5.65;;;;;;;;;;6183188;23;20005;-85
2021/01/05 06:52:35;;;;;;;12.38;6.85;;;;;;;;;;5124480;27;20403;-84
2021/01/05 06:55:01;;;;;;;11.05;6.10;;;;;;;;;;5104186;28;20036;-85
2021/01/05 06:57:27;;;;;;;9.48;5.57;;;;;;;;;;5101914;28;20024;-85
2021/01/05 06:59:53;;;;;;;11.68;6.00;;;;;;;;;;5104010;28;20396;-85
2021/01/05 07:15:02;;;;;;;10.70;6.30;;;;;;;;;;5107269;27;20473;-82
2021/01/05 07:17:28;;;;;;;10.65;6.90;;;;;;;;;;5089971;28;20543;-82
2021/01/05 07:19:54;;;;;;;11.63;6.38;;;;;;;;;;5091919;28;20036;-83
2021/01/05 07:22:20;;;;;;;10.48;6.03;;;;;;;;;;5092584;28;20028;-82
2021/01/05 07:24:45;;;;;;;10.93;6.25;;;;;;;;;;5091341;28;20040;-82
2021/01/05 07:27:11;;;;;;;12.75;7.57;;;;;;;;;;5090178;28;20100;-82
2021/01/05 07:29:37;;;;;;;11.82;6.43;;;;;;;;;;5093203;28;20028;-82
2021/01/05 07:32:03;;;;;;;13.57;7.55;;;;;;;;;;5075232;28;20453;-83
2021/01/05 07:34:30;;;;;;;12.35;7.57;;;;;;;;;;5085814;28;20124;-83
2021/01/05 07:37:01;;;;;;;10.65;7.25;;;;;;;;;;5090691;28;20032;-83
2021/01/05 07:39:31;;;;;;;14.23;8.18;;;;;;;;;;5092380;28;20032;-83
2021/01/05 07:42:11;;;;;;;13.45;8.35;;;;;;;;;;5086577;28;20025;-82
2021/01/05 07:44:37;;;;;;;12.60;7.32;;;;;;;;;;5094685;28;20032;-83
2021/01/05 07:47:03;;;;;;;16.23;8.27;;;;;;;;;;5088383;28;20032;-83
2021/01/05 07:49:29;;;;;;;14.02;8.00;;;;;;;;;;5087107;28;20024;-82
2021/01/05 07:51:55;;;;;;;14.15;8.13;;;;;;;;;;5090408;28;20028;-83
2021/01/05 07:54:21;;;;;;;15.02;9.95;;;;;;;;;;5092922;28;20013;-83
2021/01/05 07:56:47;;;;;;;14.57;7.25;;;;;;;;;;5088240;28;20382;-83
2021/01/05 07:59:13;;;;;;;15.40;8.52;;;;;;;;;;5087174;28;20023;-83
2021/01/05 08:01:39;;;;;;;13.48;8.00;;;;;;;;;;5088269;28;20028;-82
2021/01/05 08:04:05;;;;;;;12.43;7.32;;;;;;;;;;5108134;28;20050;-82
2021/01/05 08:06:31;;;;;;;11.80;7.25;;;;;;;;;;5099545;28;20048;-83
2021/01/05 08:08:57;;;;;;;13.38;7.20;;;;;;;;;;5086554;28;20024;-82
2021/01/05 08:11:23;;;;;;;13.55;7.85;;;;;;;;;;5091554;28;20028;-82
2021/01/05 08:13:49;;;;;;;11.77;7.22;;;;;;;;;;5079400;28;20414;-82
2021/01/05 08:16:15;;;;;;;11.65;7.10;;;;;;;;;;5065385;28;20113;-85
2021/01/05 08:31:34;;;;;;;13.95;8.60;;;;;;;;;;5012470;28;20034;-85
2021/01/05 08:33:59;;;;;;;12.80;6.97;;;;;;;;;;5016637;28;20030;-86
2021/01/05 08:36:29;;;;;;;13.73;7.07;;;;;;;;;;5011937;28;20030;-85
2021/01/05 08:38:55;;;;;;;11.88;6.13;;;;;;;;;;5051830;28;20673;-83
2021/01/05 08:41:21;;;;;;;13.13;7.70;;;;;;;;;;5075537;28;20459;-83
2021/01/05 08:43:47;;;;;;;18.05;8.68;;;;;;;;;;5068132;28;20083;-83
2021/01/05 08:46:20;;;;;;;14.20;8.98;;;;;;;;;;5073834;28;20044;-83
2021/01/05 08:48:46;;;;;;;13.50;7.97;;;;;;;;;;5075216;28;20039;-82
2021/01/05 08:51:12;;;;;;;13.00;7.57;;;;;;;;;;5077972;28;20471;-83
2021/01/05 08:53:38;;;;;;;16.25;8.15;;;;;;;;;;5079985;28;20024;-83
2021/01/05 08:56:04;;;;;;;13.65;8.25;;;;;;;;;;5080717;28;20012;-83
2021/01/05 09:00:49;;;;;;;18.75;9.57;;;;;;;;;;5086838;28;20395;-83
2021/01/05 09:03:15;;;;;;;18.33;10.98;;;;;;;;;;5081123;28;20040;-83
2021/01/05 09:05:41;;;;;;;22.48;12.00;;;;;;;;;;5081702;28;20091;-83
2021/01/05 09:08:07;;;;;;;18.90;10.63;;;;;;;;;;5081503;28;20025;-83
2021/01/05 09:10:33;;;;;;;16.27;10.27;;;;;;;;;;5082025;28;20025;-83
2021/01/05 09:12:59;;;;;;;16.60;9.32;;;;;;;;;;5080672;28;20021;-84
2021/01/05 09:15:25;;;;;;;18.60;9.77;;;;;;;;;;5079552;28;20405;-83
2021/01/05 09:17:52;;;;;;;14.90;9.23;;;;;;;;;;5087326;28;20542;-83
2021/01/05 09:20:23;;;;;;;17.65;9.43;;;;;;;;;;5081756;28;20017;-84
2021/01/05 09:22:49;;;;;;;17.98;10.05;;;;;;;;;;5078525;28;20025;-84
2021/01/05 09:25:15;;;;;;;15.73;9.63;;;;;;;;;;5081633;28;20032;-84
2021/01/05 09:27:42;;;;;;;16.33;10.45;;;;;;;;;;5078004;28;20040;-84
2021/01/05 09:30:09;;;;;;;16.98;9.70;;;;;;;;;;5084234;28;20028;-84
2021/01/05 09:32:35;;;;;;;19.67;11.18;;;;;;;;;;5088723;28;20403;-84
2021/01/05 09:35:01;;;;;;;15.10;9.52;;;;;;;;;;5085685;28;20028;-85
2021/01/05 09:37:27;;;;;;;16.48;10.48;;;;;;;;;;5072405;28;20021;-84
2021/01/05 09:39:53;;;;;;;21.45;10.32;;;;;;;;;;5077683;28;20370;-82
2021/01/05 09:42:19;;;;;;;16.23;9.70;;;;;;;;;;5077884;28;20027;-84
2021/01/05 09:44:45;;;;;;;20.40;11.35;;;;;;;;;;5075330;28;20040;-83
2021/01/05 09:47:12;;;;;;;15.32;9.60;;;;;;;;;;5080619;28;20024;-82
2021/01/05 09:49:38;;;;;;;16.95;9.45;;;;;;;;;;5079585;28;20028;-82
2021/01/05 09:52:04;;;;;;;16.52;10.30;;;;;;;;;;5078943;28;20422;-82
2021/01/05 09:54:31;;;;;;;14.45;8.30;;;;;;;;;;5067754;28;20029;-82
2021/01/05 09:56:57;;;;;;;17.08;9.73;;;;;;;;;;5076094;28;20137;-82
2021/01/05 09:59:25;;;;;;;16.95;9.98;;;;;;;;;;5077617;28;20056;-82
2021/01/05 10:01:51;;;;;;;14.50;8.73;;;;;;;;;;5076203;28;20024;-82
2021/01/05 10:04:17;;;;;;;17.33;9.40;;;;;;;;;;5072629;28;20570;-82
2021/01/05 10:06:43;;;;;;;19.90;9.98;;;;;;;;;;5071736;28;20086;-82
2021/01/05 10:09:09;;;;;;;21.77;10.13;;;;;;;;;;5077695;28;20099;-82
2021/01/05 10:11:40;;;;;;;14.00;8.52;;;;;;;;;;5065637;28;20647;-82
2021/01/05 10:14:07;;;;;;;15.85;10.00;;;;;;;;;;5075887;28;20031;-82
2021/01/05 10:16:33;;;;;;;15.45;9.35;;;;;;;;;;5063301;28;20104;-82
2021/01/05 10:18:59;;;;;;;18.05;9.43;;;;;;;;;;5065879;28;20040;-81
2021/01/05 10:21:32;;;;;;;15.88;8.93;;;;;;;;;;5058469;28;20028;-82
2021/01/05 10:23:58;;;;;;;17.85;10.25;;;;;;;;;;5057022;28;20033;-82
2021/01/05 10:26:24;;;;;;;18.20;10.25;;;;;;;;;;5062897;28;20027;-82
2021/01/05 10:28:50;;;;;;;17.48;9.48;;;;;;;;;;5058306;28;20033;-82
2021/01/05 10:31:16;;;;;;;19.08;9.70;;;;;;;;;;5067062;28;20036;-82
2021/01/05 10:33:42;;;;;;;14.50;9.32;;;;;;;;;;5062952;28;20047;-82
2021/01/05 10:36:08;;;;;;;15.40;9.88;;;;;;;;;;5064519;28;20032;-83
2021/01/05 10:38:34;;;;;;;16.17;9.55;;;;;;;;;;5054315;28;20035;-82
2021/01/05 10:41:00;;;;;;;12.82;7.90;;;;;;;;;;5055402;28;20108;-82
2021/01/05 10:43:25;;;;;;;17.13;9.80;;;;;;;;;;5053208;28;20048;-78
2021/01/05 10:45:51;;;;;;;16.27;9.45;;;;;;;;;;5058594;28;20025;-81
2021/01/05 10:48:17;;;;;;;68.30;29.60;;;;;;;;;;5072345;28;20027;-82
2021/01/05 10:50:43;;;;;;;30.40;15.43;;;;;;;;;;5060815;28;20035;-82
2021/01/05 10:53:10;;;;;;;23.10;12.27;;;;;;;;;;5065002;28;20025;-82
2021/01/05 10:55:36;;;;;;;16.15;10.20;;;;;;;;;;5064460;28;20021;-81
2021/01/05 10:58:03;;;;;;;16.92;9.63;;;;;;;;;;5068276;28;20382;-83
2021/01/05 11:00:29;;;;;;;16.08;9.75;;;;;;;;;;5063931;28;20052;-83
2021/01/05 11:18:20;;;;;;;14.90;8.55;;;;;;;;;;6334256;22;791556;-86
2021/01/05 11:20:46;;;;;;;18.63;9.68;;;;;;;;;;6316833;22;20063;-89
2021/01/05 11:23:12;;;;;;;15.23;9.25;;;;;;;;;;6294038;22;20090;-88
2021/01/05 11:25:38;;;;;;;16.35;10.38;;;;;;;;;;6286737;22;20329;-87
2021/01/05 11:28:05;;;;;;;18.38;10.52;;;;;;;;;;6292883;22;19987;-87
2021/01/05 11:30:31;;;;;;;18.73;12.15;;;;;;;;;;6313429;22;19999;-88
2021/01/05 11:32:57;;;;;;;17.50;10.68;;;;;;;;;;6314006;22;20057;-88
2021/01/05 11:35:23;;;;;;;23.20;13.63;;;;;;;;;;6314353;22;20071;-87
2021/01/05 11:37:49;;;;;;;20.77;12.23;;;;;;;;;;6313082;22;20041;-86
2021/01/05 11:40:16;;;;;;;17.65;10.10;;;;;;;;;;6309473;22;20011;-88
2021/01/05 11:42:42;;;;;;;16.40;10.23;;;;;;;;;;6287027;22;20000;-87
2021/01/05 11:45:09;;;;;;;19.88;10.05;;;;;;;;;;6286174;22;20011;-90
2021/01/05 11:47:35;;;;;;;14.48;9.00;;;;;;;;;;6287594;22;20007;-88
2021/01/05 11:50:06;;;;;;;17.35;10.02;;;;;;;;;;6286881;22;20090;-88
2021/01/05 11:52:33;;;;;;;16.02;9.15;;;;;;;;;;6313523;22;20014;-88
2021/01/05 11:55:02;;;;;;;15.63;9.18;;;;;;;;;;6285976;22;20082;-88
2021/01/05 11:57:28;;;;;;;17.17;10.32;;;;;;;;;;6286122;22;20333;-89
2021/01/05 11:59:57;;;;;;;14.55;8.68;;;;;;;;;;6286182;22;20007;-88
2021/01/05 12:04:40;;;;;;;17.98;11.05;;;;;;;;;;5104166;27;20339;-83
2021/01/05 12:07:06;;;;;;;18.10;10.38;;;;;;;;;;5103594;28;20400;-83
2021/01/05 12:09:32;;;;;;;16.98;9.77;;;;;;;;;;5094419;28;20557;-83
2021/01/05 12:12:04;;;;;;;17.30;9.38;;;;;;;;;;5101710;28;20028;-83
2021/01/05 12:14:30;;;;;;;18.40;9.75;;;;;;;;;;5105177;28;20095;-82
2021/01/05 12:16:59;;;;;;;15.25;9.02;;;;;;;;;;5105005;28;20104;-82
2021/01/05 12:19:27;;;;;;;16.85;10.05;;;;;;;;;;5105923;28;20023;-82
2021/01/05 12:21:57;;;;;;;17.70;10.10;;;;;;;;;;5105980;28;20024;-83
2021/01/05 12:24:24;;;;;;;15.90;10.00;;;;;;;;;;5100451;28;20016;-82
2021/01/05 12:26:51;;;;;;;18.98;11.40;;;;;;;;;;5099180;28;20090;-82
2021/01/05 12:29:17;;;;;;;15.75;9.43;;;;;;;;;;5101912;28;20089;-82
2021/01/05 12:31:51;;;;;;;17.88;9.25;;;;;;;;;;5099076;28;20019;-83
2021/01/05 12:34:18;;;;;;;17.55;9.75;;;;;;;;;;5095758;28;20028;-83
2021/01/05 12:36:44;;;;;;;21.25;10.13;;;;;;;;;;5092319;28;20093;-83
2021/01/05 12:39:15;;;;;;;18.63;10.50;;;;;;;;;;5101945;28;20709;-82
2021/01/05 12:41:41;;;;;;;17.45;9.82;;;;;;;;;;5098442;28;20055;-83
2021/01/05 12:44:08;;;;;;;19.60;10.40;;;;;;;;;;5100213;28;20058;-83
2021/01/05 12:46:35;;;;;;;16.67;10.02;;;;;;;;;;5102304;28;20073;-82
2021/01/05 12:49:02;;;;;;;17.85;9.32;;;;;;;;;;5099126;28;20058;-81
2021/01/05 12:51:28;;;;;;;17.17;10.52;;;;;;;;;;5094669;28;20495;-81
2021/01/05 12:53:54;;;;;;;16.85;9.38;;;;;;;;;;5104738;28;20098;-83
2021/01/05 12:56:20;;;;;;;16.20;9.70;;;;;;;;;;5104874;28;20114;-82
2021/01/05 12:58:46;;;;;;;16.60;9.98;;;;;;;;;;5100491;28;20560;-82
2021/01/05 13:01:14;;;;;;;18.85;10.80;;;;;;;;;;5104908;28;20035;-81
2021/01/05 13:05:59;;;;;;;20.00;10.18;;;;;;;;;;5066237;27;20369;-82
2021/01/05 13:08:25;;;;;;;19.75;10.32;;;;;;;;;;5046748;28;20025;-82
2021/01/05 13:10:51;;;;;;;17.20;10.23;;;;;;;;;;5049002;28;20040;-82
2021/01/05 13:13:17;;;;;;;20.88;11.32;;;;;;;;;;5048024;28;20120;-82
2021/01/05 13:15:43;;;;;;;18.95;11.00;;;;;;;;;;5053586;28;20509;-82
2021/01/05 13:18:09;;;;;;;23.33;11.07;;;;;;;;;;5052236;28;20055;-83
2021/01/05 13:20:35;;;;;;;17.40;10.38;;;;;;;;;;5047385;28;20029;-82
2021/01/05 13:23:01;;;;;;;16.92;10.15;;;;;;;;;;5049862;28;20801;-82
2021/01/05 13:25:27;;;;;;;19.00;12.15;;;;;;;;;;5053357;28;20024;-82
2021/01/05 13:27:53;;;;;;;20.17;11.20;;;;;;;;;;5050324;28;20027;-82
2021/01/05 13:30:19;;;;;;;19.63;11.77;;;;;;;;;;5052699;28;20024;-82
2021/01/05 13:32:45;;;;;;;22.52;12.20;;;;;;;;;;5049324;28;20385;-81
2021/01/05 13:35:11;;;;;;;19.08;10.77;;;;;;;;;;5049774;28;20025;-82
2021/01/05 13:37:37;;;;;;;16.83;9.98;;;;;;;;;;5051101;28;20484;-83
2021/01/05 13:40:04;;;;;;;19.13;11.00;;;;;;;;;;5050114;28;20045;-82
2021/01/05 13:42:32;;;;;;;18.75;11.25;;;;;;;;;;5051804;28;20072;-82
2021/01/05 13:44:58;;;;;;;21.02;11.95;;;;;;;;;;5048081;28;20037;-82
2021/01/05 13:47:24;;;;;;;17.85;11.10;;;;;;;;;;5047970;28;20096;-83
2021/01/05 13:49:50;;;;;;;21.08;11.90;;;;;;;;;;5048088;28;20022;-83
2021/01/05 13:52:18;;;;;;;19.27;11.88;;;;;;;;;;5048847;28;20057;-83
2021/01/05 13:54:45;;;;;;;20.02;11.20;;;;;;;;;;5045357;28;20017;-81
2021/01/05 13:57:16;;;;;;;21.50;11.90;;;;;;;;;;5048517;28;20393;-82
2021/01/05 13:59:42;;;;;;;20.10;11.50;;;;;;;;;;5053510;28;20025;-83
2021/01/05 14:02:08;;;;;;;20.42;11.15;;;;;;;;;;5054451;28;20478;-82
2021/01/05 14:04:34;;;;;;;22.20;12.50;;;;;;;;;;5053223;28;20111;-82
2021/01/05 14:07:04;;;;;;;20.33;11.77;;;;;;;;;;5047740;28;20032;-83
2021/01/05 14:11:50;;;;;;;22.42;11.77;;;;;;;;;;5089455;28;20802;-82
2021/01/05 14:14:16;;;;;;;23.20;12.38;;;;;;;;;;5092954;28;20077;-84
2021/01/05 14:16:42;;;;;;;21.00;12.75;;;;;;;;;;5079009;28;20033;-84
2021/01/05 14:19:08;;;;;;;22.35;11.73;;;;;;;;;;5072147;28;20380;-84
2021/01/05 14:21:36;;;;;;;25.50;12.60;;;;;;;;;;5076893;28;20024;-82
2021/01/05 14:24:04;;;;;;;24.45;13.68;;;;;;;;;;5076614;28;20091;-82
2021/01/05 14:26:31;;;;;;;24.75;13.88;;;;;;;;;;5064592;28;20048;-81
2021/01/05 14:28:58;;;;;;;23.15;13.52;;;;;;;;;;5081712;28;20052;-82
2021/01/05 14:31:26;;;;;;;26.60;13.60;;;;;;;;;;5069996;28;20473;-82
2021/01/05 14:33:52;;;;;;;24.80;13.65;;;;;;;;;;5068877;28;20029;-82
2021/01/05 14:36:19;;;;;;;23.77;13.50;;;;;;;;;;5062307;28;20474;-82
2021/01/05 14:38:45;;;;;;;22.45;13.20;;;;;;;;;;5069727;28;20095;-82
2021/01/05 14:41:12;;;;;;;27.00;14.90;;;;;;;;;;5066912;28;20041;-82
2021/01/05 14:43:38;;;;;;;22.67;13.40;;;;;;;;;;5061052;28;20033;-82
2021/01/05 14:46:06;;;;;;;25.65;14.40;;;;;;;;;;5065436;28;20025;-82
2021/01/05 14:48:32;;;;;;;24.88;14.38;;;;;;;;;;5074873;28;20036;-82
2021/01/05 14:50:58;;;;;;;23.80;14.00;;;;;;;;;;5058075;28;20477;-80
2021/01/05 14:53:24;;;;;;;24.73;14.05;;;;;;;;;;5061509;28;20025;-83
2021/01/05 14:55:50;;;;;;;25.77;14.95;;;;;;;;;;5064916;28;20071;-83
2021/01/05 14:58:16;;;;;;;26.83;15.23;;;;;;;;;;5069849;28;20021;-83
2021/01/05 15:00:44;;;;;;;24.00;15.07;;;;;;;;;;5064755;28;20559;-83
2021/01/05 15:03:10;;;;;;;33.17;17.80;;;;;;;;;;5062418;28;20504;-83
2021/01/05 15:05:36;;;;;;;34.17;20.25;;;;;;;;;;5055764;28;20029;-83
2021/01/05 15:08:03;;;;;;;29.02;16.95;;;;;;;;;;5060942;28;20447;-83
2021/01/05 15:10:29;;;;;;;28.15;16.20;;;;;;;;;;5061555;28;20396;-84
2021/01/05 15:12:55;;;;;;;26.85;16.38;;;;;;;;;;5062140;28;20021;-83
2021/01/05 15:15:21;;;;;;;26.42;15.48;;;;;;;;;;5060179;28;20075;-83
2021/01/05 15:17:51;;;;;;;29.58;15.93;;;;;;;;;;5067117;28;20032;-84
2021/01/05 15:20:17;;;;;;;26.85;15.13;;;;;;;;;;5062516;28;20358;-83
2021/01/05 15:22:42;;;;;;;23.98;13.55;;;;;;;;;;5051880;28;20059;-83
2021/01/05 15:25:09;;;;;;;25.98;14.63;;;;;;;;;;5058224;28;20485;-83
2021/01/05 15:29:53;;;;;;;29.02;15.93;;;;;;;;;;5103393;27;20853;-84
2021/01/05 15:32:19;;;;;;;28.73;16.42;;;;;;;;;;5097332;28;20081;-82
2021/01/05 15:34:44;;;;;;;26.65;15.00;;;;;;;;;;5093391;28;20020;-82
2021/01/05 15:37:10;;;;;;;26.33;13.68;;;;;;;;;;5094616;28;20069;-82
2021/01/05 15:39:36;;;;;;;23.05;13.70;;;;;;;;;;5097607;28;20024;-83
2021/01/05 15:42:03;;;;;;;26.15;13.90;;;;;;;;;;5086511;28;20074;-82
2021/01/05 15:44:30;;;;;;;26.98;15.98;;;;;;;;;;5084295;28;20020;-82
2021/01/05 15:46:57;;;;;;;24.75;14.82;;;;;;;;;;5091434;28;20032;-82
2021/01/05 15:49:23;;;;;;;25.77;15.05;;;;;;;;;;5080745;28;20023;-82
2021/01/05 15:51:49;;;;;;;25.27;14.77;;;;;;;;;;5091208;28;20047;-82
2021/01/05 15:54:15;;;;;;;25.38;13.45;;;;;;;;;;5096168;28;20200;-82
2021/01/05 15:56:41;;;;;;;20.42;13.05;;;;;;;;;;5087670;28;20048;-82
2021/01/05 15:59:08;;;;;;;25.05;13.98;;;;;;;;;;5097482;28;20107;-82
2021/01/05 16:01:35;;;;;;;29.10;15.95;;;;;;;;;;5099045;28;20089;-82
2021/01/05 16:04:01;;;;;;;31.20;14.30;;;;;;;;;;5095829;28;20033;-84
2021/01/05 16:06:29;;;;;;;33.25;17.15;;;;;;;;;;5098884;28;20023;-82
2021/01/05 16:09:00;;;;;;;35.53;18.05;;;;;;;;;;5096079;28;20089;-82
2021/01/05 16:11:25;;;;;;;32.05;17.13;;;;;;;;;;5094761;28;20719;-83
2021/01/05 16:13:52;;;;;;;29.52;15.88;;;;;;;;;;5097632;28;20021;-83
2021/01/05 16:16:18;;;;;;;30.73;17.20;;;;;;;;;;5098374;28;20024;-83
2021/01/05 16:18:44;;;;;;;25.20;14.85;;;;;;;;;;5093298;28;20497;-83
2021/01/05 16:21:10;;;;;;;32.53;17.52;;;;;;;;;;5095270;28;20028;-82
2021/01/05 16:23:36;;;;;;;24.10;14.00;;;;;;;;;;5099906;28;20035;-82
2021/01/05 16:28:21;;;;;;;28.95;16.58;;;;;;;;;;5123670;27;20371;-81
2021/01/05 16:30:47;;;;;;;27.13;17.10;;;;;;;;;;5104018;28;20033;-82
2021/01/05 16:33:13;;;;;;;26.00;16.35;;;;;;;;;;5105975;28;20032;-82
2021/01/05 16:35:39;;;;;;;26.30;14.50;;;;;;;;;;5092707;28;20028;-82
2021/01/05 16:38:05;;;;;;;22.02;12.45;;;;;;;;;;5091464;28;20036;-82
2021/01/05 16:40:33;;;;;;;22.90;14.02;;;;;;;;;;5101642;28;20049;-82
2021/01/05 16:42:59;;;;;;;22.65;12.93;;;;;;;;;;5108226;28;20096;-82
2021/01/05 16:45:26;;;;;;;26.08;14.73;;;;;;;;;;5090949;28;20056;-82
2021/01/05 16:47:52;;;;;;;21.08;12.52;;;;;;;;;;5103851;28;20039;-81
2021/01/05 16:50:25;;;;;;;29.88;15.35;;;;;;;;;;5097989;28;20024;-82
2021/01/05 16:52:51;;;;;;;27.70;15.45;;;;;;;;;;5095938;28;20361;-82
2021/01/05 16:55:18;;;;;;;25.67;14.15;;;;;;;;;;5092134;28;20024;-82
2021/01/05 16:57:46;;;;;;;25.95;14.65;;;;;;;;;;5108368;28;20444;-82
2021/01/05 17:00:20;;;;;;;21.83;12.10;;;;;;;;;;5113103;28;20023;-82
2021/01/05 17:02:46;;;;;;;24.50;14.30;;;;;;;;;;5105887;28;20036;-82
2021/01/05 17:05:13;;;;;;;24.02;14.43;;;;;;;;;;5104876;28;20032;-82
2021/01/05 17:07:38;;;;;;;22.95;14.10;;;;;;;;;;5100706;28;20028;-82
2021/01/05 17:10:05;;;;;;;25.60;13.13;;;;;;;;;;5090705;28;20026;-82
2021/01/05 17:12:33;;;;;;;23.55;13.18;;;;;;;;;;5095387;28;20412;-82
2021/01/05 17:14:59;;;;;;;25.23;14.25;;;;;;;;;;5094541;28;20026;-82
2021/01/05 17:17:26;;;;;;;28.50;15.68;;;;;;;;;;5101287;28;20131;-82
2021/01/05 17:19:52;;;;;;;31.63;18.52;;;;;;;;;;5109397;28;20067;-82
2021/01/05 17:22:18;;;;;;;26.02;14.93;;;;;;;;;;5105722;28;20032;-82
2021/01/05 17:24:45;;;;;;;28.23;15.05;;;;;;;;;;5105557;28;20040;-82
2021/01/05 17:27:13;;;;;;;24.35;14.65;;;;;;;;;;5105823;28;20391;-82
2021/01/05 17:29:39;;;;;;;24.27;13.10;;;;;;;;;;5099110;28;20503;-82
2021/01/05 17:32:05;;;;;;;23.73;13.75;;;;;;;;;;5104673;28;20024;-82
2021/01/05 17:34:31;;;;;;;26.63;13.90;;;;;;;;;;5099864;28;20028;-82
2021/01/05 17:36:57;;;;;;;20.73;12.10;;;;;;;;;;5095547;28;20396;-81
2021/01/05 17:39:23;;;;;;;25.33;15.73;;;;;;;;;;5080253;28;20092;-80
2021/01/05 17:41:56;;;;;;;23.98;13.63;;;;;;;;;;5087684;28;20031;-82
2021/01/05 17:44:22;;;;;;;24.42;12.93;;;;;;;;;;5082493;28;20040;-83
2021/01/05 17:46:50;;;;;;;23.15;13.63;;;;;;;;;;5085897;28;20080;-83
2021/01/05 17:49:16;;;;;;;29.83;14.35;;;;;;;;;;5082204;28;20066;-84
2021/01/05 17:51:42;;;;;;;29.50;16.02;;;;;;;;;;5084198;28;20473;-83
2021/01/05 17:54:21;;;;;;;27.45;15.27;;;;;;;;;;5076906;28;20028;-85
2021/01/05 17:56:55;;;;;;;26.08;14.88;;;;;;;;;;5078403;28;20029;-83
2021/01/05 17:59:21;;;;;;;21.95;12.60;;;;;;;;;;5081762;28;20112;-83
2021/01/05 18:01:47;;;;;;;23.17;14.02;;;;;;;;;;5082293;28;20060;-84
2021/01/05 18:04:14;;;;;;;23.55;12.70;;;;;;;;;;5087725;28;20024;-86
2021/01/05 18:06:40;;;;;;;21.33;12.20;;;;;;;;;;5083452;28;20020;-83
2021/01/05 18:09:06;;;;;;;22.92;13.48;;;;;;;;;;5086269;28;20029;-82
2021/01/05 18:11:32;;;;;;;22.73;13.38;;;;;;;;;;5082892;28;20021;-83
2021/01/05 18:13:58;;;;;;;21.45;12.27;;;;;;;;;;5087110;28;20493;-84
2021/01/05 18:16:25;;;;;;;25.30;12.25;;;;;;;;;;5082140;28;20051;-83
2021/01/05 18:18:51;;;;;;;19.95;11.65;;;;;;;;;;5078354;28;20028;-83
2021/01/05 18:21:18;;;;;;;23.35;13.05;;;;;;;;;;5082845;28;20035;-83
2021/01/05 18:23:44;;;;;;;23.30;13.48;;;;;;;;;;5078330;28;20028;-83
2021/01/05 18:26:10;;;;;;;20.27;12.25;;;;;;;;;;5085070;28;20113;-83
2021/01/05 18:28:36;;;;;;;24.25;13.68;;;;;;;;;;5063783;28;20013;-83
2021/01/05 18:31:03;;;;;;;27.00;14.98;;;;;;;;;;5080246;28;20484;-83
2021/01/05 18:35:47;;;;;;;28.45;15.60;;;;;;;;;;5055828;28;20936;-84
2021/01/05 18:38:17;;;;;;;28.60;15.90;;;;;;;;;;5053993;28;20037;-84
2021/01/05 18:40:44;;;;;;;28.88;14.98;;;;;;;;;;5051250;28;20028;-83
2021/01/05 18:43:10;;;;;;;22.08;14.48;;;;;;;;;;5061917;28;20104;-83
2021/01/05 18:45:36;;;;;;;25.65;15.63;;;;;;;;;;5039724;28;20128;-83
2021/01/05 18:48:02;;;;;;;22.83;14.25;;;;;;;;;;5052837;28;20032;-83
2021/01/05 18:50:32;;;;;;;20.35;12.43;;;;;;;;;;5055104;28;20043;-83
2021/01/05 18:52:58;;;;;;;21.33;14.90;;;;;;;;;;5054876;28;20040;-83
2021/01/05 18:55:30;;;;;;;25.60;14.20;;;;;;;;;;5059617;28;20063;-83
2021/01/05 18:57:56;;;;;;;;;;;;;;;;;;5060347;28;20025;-83
2021/01/05 19:00:23;;;;;;;24.63;14.20;;;;;;;;;;5057290;28;19977;-83
2021/01/05 19:02:50;;;;;;;23.50;13.00;;;;;;;;;;5056154;28;20151;-83
2021/01/05 19:05:16;;;;;;;20.42;11.18;;;;;;;;;;5061806;28;20040;-83
2021/01/05 19:07:42;;;;;;;20.02;12.25;;;;;;;;;;5054513;28;20020;-83
2021/01/05 19:10:08;;;;;;;19.85;10.60;;;;;;;;;;5053468;28;20397;-83
2021/01/05 19:12:34;;;;;;;29.08;12.43;;;;;;;;;;5053773;28;20033;-83
2021/01/05 19:15:00;;;;;;;22.58;13.25;;;;;;;;;;5057976;28;20035;-83
2021/01/05 19:17:27;;;;;;;21.90;12.85;;;;;;;;;;5058929;28;20033;-83
2021/01/05 19:19:53;;;;;;;21.75;11.18;;;;;;;;;;5051731;28;20029;-82
2021/01/05 19:22:19;;;;;;;20.83;10.85;;;;;;;;;;5053658;28;20496;-83
2021/01/05 19:24:45;;;;;;;18.98;12.38;;;;;;;;;;5056107;28;20104;-83
2021/01/05 19:27:12;;;;;;;19.98;11.30;;;;;;;;;;5064638;28;20059;-83
2021/01/05 19:29:39;;;;;;;20.10;11.18;;;;;;;;;;5052169;28;20463;-84
2021/01/05 19:32:05;;;;;;;22.58;11.43;;;;;;;;;;5058646;28;20493;-83
2021/01/05 19:34:31;;;;;;;20.45;12.32;;;;;;;;;;5054340;28;20032;-83
2021/01/05 19:36:57;;;;;;;20.98;11.55;;;;;;;;;;5056955;28;20112;-83
2021/01/05 19:39:23;;;;;;;20.80;11.80;;;;;;;;;;5056827;28;20029;-83
2021/01/05 19:41:49;;;;;;;20.35;10.98;;;;;;;;;;5051371;28;20021;-83
2021/01/05 19:44:15;;;;;;;22.30;12.15;;;;;;;;;;5061648;28;20481;-83
2021/01/05 19:46:44;;;;;;;20.38;10.73;;;;;;;;;;5040672;28;20036;-83
2021/01/05 19:49:10;;;;;;;24.60;12.52;;;;;;;;;;5043500;28;20502;-84
2021/01/05 19:51:36;;;;;;;23.70;13.23;;;;;;;;;;5041356;28;20045;-83
2021/01/05 19:54:02;;;;;;;20.27;11.07;;;;;;;;;;5037717;28;20385;-83
2021/01/05 19:56:31;;;;;;;19.60;11.38;;;;;;;;;;5038318;28;20025;-84
2021/01/05 19:58:57;;;;;;;20.10;11.13;;;;;;;;;;5048168;28;20052;-83
2021/01/05 20:01:27;;;;;;;17.90;10.25;;;;;;;;;;5048961;28;20100;-83
2021/01/05 20:03:53;;;;;;;18.10;10.45;;;;;;;;;;5041205;28;20551;-83
2021/01/05 20:06:21;;;;;;;18.63;10.50;;;;;;;;;;5047402;28;20033;-83
2021/01/05 20:08:51;;;;;;;17.50;10.32;;;;;;;;;;5041011;28;20040;-83
2021/01/05 20:13:41;;;;;;;17.50;10.45;;;;;;;;;;5103175;27;20171;-85
2021/01/05 20:16:07;;;;;;;21.85;10.60;;;;;;;;;;5089541;28;20384;-85
2021/01/05 20:18:33;;;;;;;20.00;12.07;;;;;;;;;;5088314;28;20095;-85
2021/01/05 20:20:59;;;;;;;20.48;12.82;;;;;;;;;;5082222;28;20152;-85
2021/01/05 20:23:25;;;;;;;23.10;13.68;;;;;;;;;;5084304;28;20025;-84
2021/01/05 20:25:50;;;;;;;25.40;15.00;;;;;;;;;;5076976;28;20036;-85
2021/01/05 20:28:23;;;;;;;24.95;14.32;;;;;;;;;;5092622;28;20548;-84
2021/01/05 20:30:52;;;;;;;19.27;11.25;;;;;;;;;;5091738;28;20032;-84
2021/01/05 20:33:18;;;;;;;18.27;9.68;;;;;;;;;;5087136;28;20028;-85
2021/01/05 20:35:44;;;;;;;13.38;8.50;;;;;;;;;;5088536;28;20024;-84
2021/01/05 20:38:11;;;;;;;15.82;9.57;;;;;;;;;;5082652;28;20095;-84
2021/01/05 20:40:37;;;;;;;17.17;9.05;;;;;;;;;;5085558;28;20360;-84
2021/01/05 20:43:05;;;;;;;15.90;9.57;;;;;;;;;;5082801;28;20032;-84
2021/01/05 20:45:32;;;;;;;14.02;9.27;;;;;;;;;;5098927;28;20066;-85
2021/01/05 20:47:59;;;;;;;15.95;8.80;;;;;;;;;;5090591;28;20117;-85
2021/01/05 20:50:25;;;;;;;15.57;8.77;;;;;;;;;;5098352;28;20365;-85
2021/01/05 20:52:51;;;;;;;16.58;8.80;;;;;;;;;;5094306;28;20480;-84
2021/01/05 20:55:18;;;;;;;14.88;8.75;;;;;;;;;;5093589;28;20118;-84
2021/01/05 20:57:47;;;;;;;15.32;9.05;;;;;;;;;;5084277;28;20024;-85
2021/01/05 21:00:18;;;;;;;14.82;8.65;;;;;;;;;;5091680;28;20461;-84
2021/01/05 21:02:44;;;;;;;13.55;8.05;;;;;;;;;;5084805;28;20028;-84
2021/01/05 21:05:15;;;;;;;13.82;8.60;;;;;;;;;;5091499;28;20029;-84
2021/01/05 21:07:41;;;;;;;14.90;8.73;;;;;;;;;;5084475;28;20483;-84
2021/01/05 21:10:07;;;;;;;21.73;9.35;;;;;;;;;;5091230;28;20032;-84
2021/01/05 21:12:34;;;;;;;14.27;8.52;;;;;;;;;;5088188;28;20472;-84
2021/01/05 21:15:00;;;;;;;19.42;8.00;;;;;;;;;;5094031;28;20027;-85
2021/01/05 21:17:26;;;;;;;14.43;7.80;;;;;;;;;;5088129;28;20036;-84